Bookmark and Share
Track history (hours):
 

Wilson Algeciras

Last reported at 2014-Apr-19 19:30 UTC. Time now 2014-Apr-20 16:02 UTC.
Position N 55°23' E 005°19'.

Length 90 m; draft 4.3 m.

Type: Ship. MMSI: 248689000.

NotesDate/timePositionNaut miles runAvg speedWind from/ knotsBaromVisibWave heightAir tempDewpointWater temp
2014-Apr-19 19:30N 55°23' E 005°19'21 9.6
2014-Apr-19 17:21N 55°02' E 005°13'73 9.4
2014-Apr-19 09:33N 53°50' E 004°54'10 9.7
2014-Apr-19 08:33N 53°40' E 004°52'4210.0
2014-Apr-19 04:19N 53°02' E 004°23'7 8.9
2014-Apr-19 03:33N 52°55' E 004°18'8 8.3
2014-Apr-19 02:33N 52°48' E 004°11'8 7.7
2014-Apr-19 01:33N 52°42' E 004°04'7 7.5
2014-Apr-19 00:33N 52°35' E 003°59'7 7.2
2014-Apr-18 23:32N 52°28' E 003°54'14 6.8
2014-Apr-18 21:33N 52°15' E 003°53'4 3.1
2014-Apr-18 20:24N 52°11' E 003°54'7 8.0
2014-Apr-18 19:33N 52°05' E 003°54'7 7.3
2014-Apr-18 18:33N 51°60' E 004°03'9 9.4
2014-Apr-18 17:33N 51°55' E 004°16'7 7.0
2014-Apr-18 16:33N 51°53' E 004°27'0 0.2
2014-Apr-18 15:33N 51°53' E 004°26'0 0.0
2014-Apr-18 14:33N 51°53' E 004°26'1 0.7
2014-Apr-18 13:08N 51°54' E 004°27'1 1.7
2014-Apr-18 12:33N 51°54' E 004°28'0 0.0
2014-Apr-18 11:27N 51°54' E 004°28'0 0.0
2014-Apr-18 10:33N 51°54' E 004°28'0 0.0
2014-Apr-18 09:33N 51°54' E 004°28'0 0.0
2014-Apr-18 08:30N 51°54' E 004°28'0 0.0
2014-Apr-18 07:33N 51°54' E 004°28'0 0.0
2014-Apr-18 06:33N 51°54' E 004°28'0 0.0
2014-Apr-18 05:33N 51°54' E 004°28'0 0.0
2014-Apr-18 04:27N 51°54' E 004°28'0 0.0
2014-Apr-18 03:24N 51°54' E 004°28'0 0.0
2014-Apr-18 02:30N 51°54' E 004°28'0 0.0
2014-Apr-18 01:33N 51°54' E 004°28'0 0.0
2014-Apr-18 00:30N 51°54' E 004°28'0 0.0
2014-Apr-17 23:33N 51°54' E 004°28'0 0.0
2014-Apr-17 22:33N 51°54' E 004°28'0 0.0
2014-Apr-17 21:33N 51°54' E 004°28'0 0.0
2014-Apr-17 20:33N 51°54' E 004°28'0 0.0
2014-Apr-17 19:33N 51°54' E 004°28'0 0.0
2014-Apr-17 18:33N 51°54' E 004°28'0 0.0
2014-Apr-17 17:33N 51°54' E 004°28'0 0.0
2014-Apr-17 16:24N 51°54' E 004°28'0 0.0
2014-Apr-17 15:27N 51°54' E 004°28'0 0.0
2014-Apr-17 14:27N 51°54' E 004°28'0 0.0
2014-Apr-17 13:30N 51°54' E 004°28'0 0.0
2014-Apr-17 12:33N 51°54' E 004°28'0 0.0
2014-Apr-17 11:33N 51°54' E 004°28'0 0.0
2014-Apr-17 10:33N 51°54' E 004°28'0 0.0
2014-Apr-17 09:33N 51°54' E 004°28'0 0.0
2014-Apr-17 08:33N 51°54' E 004°28'0 0.0
2014-Apr-17 07:33N 51°54' E 004°28'0 0.0
2014-Apr-17 06:21N 51°54' E 004°28'0 0.0
2014-Apr-17 05:33N 51°54' E 004°28'0 0.0
2014-Apr-17 04:33N 51°54' E 004°28'0 0.0
2014-Apr-17 03:33N 51°54' E 004°28'0 0.4
2014-Apr-17 02:33N 51°54' E 004°28'5 5.1
2014-Apr-17 01:33N 51°51' E 004°21'10 9.6
2014-Apr-17 00:33N 51°48' E 004°35'2 1.9
2014-Apr-16 23:34N 51°48' E 004°38'0 0.0
2014-Apr-16 22:33N 51°48' E 004°38'0 0.0
2014-Apr-16 21:33N 51°48' E 004°38'0 0.0
2014-Apr-16 20:33N 51°48' E 004°38'0 0.0
2014-Apr-16 19:33N 51°48' E 004°38'0 0.0
2014-Apr-16 18:33N 51°48' E 004°38'0 0.0
2014-Apr-16 17:33N 51°48' E 004°38'0 0.0
2014-Apr-16 16:33N 51°48' E 004°38'0 0.0
2014-Apr-16 15:34N 51°48' E 004°38'5 5.5
2014-Apr-16 14:33N 51°50' E 004°30'7 7.0
2014-Apr-16 13:33N 51°53' E 004°20'5 4.6
2014-Apr-16 12:33N 51°55' E 004°14'7 7.3
2014-Apr-16 11:33N 51°59' E 004°04'8 7.7
2014-Apr-16 10:33N 51°59' E 003°51'22 7.4
2014-Apr-16 07:32N 51°53' E 003°17'8 8.4
2014-Apr-16 06:33N 51°51' E 003°04'28 9.0
2014-Apr-16 03:30N 51°36' E 002°26'1010.4
2014-Apr-16 02:30N 51°28' E 002°16'1010.5
2014-Apr-16 01:31N 51°19' E 002°07'1010.8
2014-Apr-16 00:34N 51°11' E 001°56'1111.3
2014-Apr-15 23:33N 51°04' E 001°42'2510.0
2014-Apr-15 21:04N 50°42' E 001°22'21 8.3
2014-Apr-15 18:33N 50°29' E 000°56'8 7.7
2014-Apr-15 17:34N 50°27' E 000°45'8 7.5
2014-Apr-15 16:33N 50°25' E 000°33'7 7.0
2014-Apr-15 15:33N 50°23' E 000°22'62 7.8
2014-Apr-15 07:33N 50°06' W 001°11'232 8.9
2014-Apr-14 05:33N 48°02' W 006°11'  
2014-Apr-10 20:30N 37°49' W 009°35'10 9.0
2014-Apr-10 19:22N 37°39' W 009°32'8 8.9
2014-Apr-10 18:31N 37°31' W 009°30'11 9.1
2014-Apr-10 17:18N 37°21' W 009°27'16 8.9
2014-Apr-10 15:33N 37°05' W 009°23'  

Dump ship's entire track history

sailing weather and tide predictions

Wilson Algeciras — 9HA2471 — position and weather